Time;durP1;ratioP1;P1;durP2;ratioP2;P2;SDS_P1;SDS_P2;PMS_P1;PMS_P2;Temp;Humidity;BMP_temperature;BMP_pressure;BME280_temperature;BME280_humidity;BME280_pressure;Samples;Min_cycle;Max_cycle;Signal;HPM_P1;HPM_P2
2023/05/07 00:02:08;;;;;;;;;;;;;;;11.12;91.01;99112.94;135629;1280;22590;-66
2023/05/07 00:05:19;;;;;;;;;;;;;;;11.14;90.45;99112.83;131415;1281;5372436;-65
2023/05/07 00:08:22;;;;;;;;;;;;;;;11.13;90.56;99109.41;135566;1280;25601;-65
2023/05/07 00:11:26;;;;;;;;;;;;;;;11.11;90.84;99111.45;135571;1280;23269;-67
2023/05/07 00:14:28;;;;;;;;;;;;;;;11.20;89.89;99112.01;135536;1280;25995;-65
2023/05/07 00:17:31;;;;;;;;;;;;;;;11.24;89.36;99112.46;135580;1263;22617;-65
2023/05/07 00:20:34;;;;;;;;;;;;;;;11.24;88.73;99112.23;135602;1264;22513;-65
2023/05/07 00:23:37;;;;;;;;;;;;;;;11.26;88.81;99114.63;135551;1279;22615;-65
2023/05/07 00:26:40;;;;;;;;;;;;;;;11.24;88.51;99117.15;135622;1279;22511;-64
2023/05/07 00:29:43;;;;;;;;;;;;;;;11.22;88.92;99121.15;135624;1279;24265;-64
2023/05/07 00:32:48;;;;;;;;;;;;;;;11.23;88.72;99123.86;135539;1279;22529;-64
2023/05/07 00:35:51;;;;;;;;;;;;;;;11.21;88.38;99124.17;135611;1279;23047;-65
2023/05/07 00:39:03;;;;;;;;;;;;;;;11.14;88.29;99126.00;135381;1279;22535;-64
2023/05/07 00:42:05;;;;;;;;;;;;;;;11.13;88.70;99122.55;135529;1264;24337;-68
2023/05/07 00:45:10;;;;;;;;;;;;;;;11.10;88.55;99127.59;135578;1279;22502;-64
2023/05/07 00:48:13;;;;;;;;;;;;;;;11.09;88.11;99129.94;135582;1279;22497;-66
2023/05/07 00:51:16;;;;;;;;;;;;;;;11.05;88.16;99132.80;135614;1279;22511;-64
2023/05/07 00:54:20;;;;;;;;;;;;;;;10.95;88.42;99136.30;135586;1279;22605;-67
2023/05/07 00:57:23;;;;;;;;;;;;;;;10.90;88.76;99137.16;135517;1279;22503;-68
2023/05/07 01:00:26;;;;;;;;;;;;;;;10.89;88.46;99133.21;135600;1279;22504;-65
2023/05/07 01:03:29;;;;;;;;;;;;;;;10.82;88.18;99137.42;135605;1279;25456;-68
2023/05/07 01:06:34;;;;;;;;;;;;;;;10.81;88.27;99135.02;135361;1279;22526;-65
2023/05/07 01:09:37;;;;;;;;;;;;;;;10.82;87.80;99136.55;135580;1279;22524;-65
2023/05/07 01:12:41;;;;;;;;;;;;;;;10.73;87.62;99131.81;135581;1264;22645;-67
2023/05/07 01:15:45;;;;;;;;;;;;;;;10.53;88.65;99136.27;135290;1279;22537;-67
2023/05/07 01:18:48;;;;;;;;;;;;;;;10.54;88.92;99136.90;135331;1279;22511;-65
2023/05/07 01:21:51;;;;;;;;;;;;;;;10.50;89.43;99140.30;135586;1279;25384;-67
2023/05/07 01:24:55;;;;;;;;;;;;;;;10.44;89.09;99142.34;135345;1279;24233;-69
2023/05/07 01:28:00;;;;;;;;;;;;;;;10.32;89.29;99147.36;135527;1280;22519;-66
2023/05/07 01:31:10;;;;;;;;;;;;;;;10.23;90.27;99145.23;135437;1280;22644;-69
2023/05/07 01:34:13;;;;;;;;;;;;;;;10.15;90.27;99150.00;135600;1280;22510;-71
2023/05/07 01:37:17;;;;;;;;;;;;;;;10.12;89.83;99152.26;135479;1279;22512;-67
2023/05/07 01:40:20;;;;;;;;;;;;;;;10.36;87.79;99155.86;135658;1279;22502;-64
2023/05/07 01:43:24;;;;;;;;;;;;;;;10.38;87.85;99157.01;135465;1280;22516;-65
2023/05/07 01:46:27;;;;;;;;;;;;;;;10.48;86.90;99166.61;135573;1280;22509;-69
2023/05/07 01:49:31;;;;;;;;;;;;;;;10.44;86.81;99167.87;135594;1280;22514;-65
2023/05/07 01:52:35;;;;;;;;;;;;;;;10.35;86.52;99172.55;135560;1280;22679;-72
2023/05/07 01:55:39;;;;;;;;;;;;;;;10.29;87.28;99169.21;135573;1280;22501;-68
2023/05/07 01:58:42;;;;;;;;;;;;;;;10.22;87.15;99168.70;135531;1280;22527;-71
2023/05/07 02:01:45;;;;;;;;;;;;;;;10.20;86.94;99170.85;135604;1280;22506;-67
2023/05/07 02:04:49;;;;;;;;;;;;;;;10.18;86.70;99171.52;135579;1280;22506;-68
2023/05/07 02:07:52;;;;;;;;;;;;;;;10.09;86.69;99175.27;135520;1280;22580;-66
2023/05/07 02:10:56;;;;;;;;;;;;;;;10.09;87.27;99175.15;135582;1280;22501;-65
2023/05/07 02:13:59;;;;;;;;;;;;;;;10.09;86.97;99176.90;135589;1280;22515;-64
2023/05/07 02:17:02;;;;;;;;;;;;;;;10.04;87.70;99179.05;135554;1280;22513;-69
2023/05/07 02:20:07;;;;;;;;;;;;;;;10.06;87.13;99183.69;135569;1280;22528;-65
2023/05/07 02:23:10;;;;;;;;;;;;;;;10.08;86.65;99175.20;135585;1280;22504;-65
2023/05/07 02:26:14;;;;;;;;;;;;;;;10.14;85.78;99179.78;135560;1280;22500;-70
2023/05/07 02:29:17;;;;;;;;;;;;;;;10.22;85.18;99182.48;135589;1280;22514;-67
2023/05/07 02:32:20;;;;;;;;;;;;;;;10.15;85.82;99179.88;135571;1280;22510;-65
2023/05/07 02:35:24;;;;;;;;;;;;;;;9.99;86.23;99179.52;135567;1280;22520;-67
2023/05/07 02:38:27;;;;;;;;;;;;;;;9.90;86.47;99182.80;135591;1280;22506;-67
2023/05/07 02:41:33;;;;;;;;;;;;;;;9.85;86.47;99187.05;135592;1280;22616;-72
2023/05/07 02:44:40;;;;;;;;;;;;;;;9.81;86.51;99191.27;135592;1280;22564;-68
2023/05/07 02:47:43;;;;;;;;;;;;;;;9.81;86.38;99189.02;135565;1280;22521;-67
2023/05/07 02:50:47;;;;;;;;;;;;;;;9.81;85.96;99190.76;135572;1280;22549;-68
2023/05/07 02:53:50;;;;;;;;;;;;;;;9.79;85.83;99194.72;135547;1280;22531;-65
2023/05/07 02:56:54;;;;;;;;;;;;;;;9.79;85.70;99201.87;135558;1280;22526;-67
2023/05/07 02:59:57;;;;;;;;;;;;;;;9.77;85.74;99206.51;135396;1280;22505;-68
2023/05/07 03:03:03;;;;;;;;;;;;;;;9.75;86.19;99204.70;135530;1280;22624;-68
2023/05/07 03:06:06;;;;;;;;;;;;;;;9.74;85.44;99205.96;135576;1280;22554;-66
2023/05/07 03:09:09;;;;;;;;;;;;;;;9.76;86.03;99201.36;135554;1280;22499;-66
2023/05/07 03:12:12;;;;;;;;;;;;;;;9.78;85.41;99202.07;135551;1262;22507;-67
2023/05/07 03:15:15;;;;;;;;;;;;;;;9.82;85.57;99197.87;135539;1280;22535;-66
2023/05/07 03:18:18;;;;;;;;;;;;;;;9.75;85.65;99200.00;135535;1280;22530;-65
2023/05/07 03:21:21;;;;;;;;;;;;;;;9.71;85.85;99208.91;135581;1270;22494;-68
2023/05/07 03:24:24;;;;;;;;;;;;;;;9.67;86.45;99212.74;135548;1280;22506;-67
2023/05/07 03:27:28;;;;;;;;;;;;;;;9.71;86.28;99217.79;135547;1280;22555;-65
2023/05/07 03:30:31;;;;;;;;;;;;;;;9.74;86.08;99215.92;135399;1280;22518;-69
2023/05/07 03:33:34;;;;;;;;;;;;;;;9.79;85.35;99219.34;135603;1262;22538;-69
2023/05/07 03:36:37;;;;;;;;;;;;;;;9.84;85.06;99224.33;135345;1280;25446;-66
2023/05/07 03:39:40;;;;;;;;;;;;;;;9.83;84.82;99230.80;135571;1280;24390;-68
2023/05/07 03:42:42;;;;;;;;;;;;;;;9.78;85.35;99234.06;135522;1280;22630;-70
2023/05/07 03:45:45;;;;;;;;;;;;;;;9.83;85.56;99236.06;135544;1280;25609;-72
2023/05/07 03:48:49;;;;;;;;;;;;;;;9.82;85.38;99240.65;135479;1280;22527;-68
2023/05/07 03:51:51;;;;;;;;;;;;;;;9.73;85.83;99240.96;135349;1271;22520;-69
2023/05/07 03:54:54;;;;;;;;;;;;;;;9.74;86.14;99243.33;135561;1262;22632;-67
2023/05/07 03:57:58;;;;;;;;;;;;;;;9.81;85.20;99246.29;135566;1279;22589;-69
2023/05/07 04:01:01;;;;;;;;;;;;;;;9.84;84.97;99249.28;135548;1280;24229;-68
2023/05/07 04:04:04;;;;;;;;;;;;;;;9.79;84.93;99252.15;135545;1277;22509;-67
2023/05/07 04:07:07;;;;;;;;;;;;;;;9.82;85.09;99256.73;135482;1279;24045;-68
2023/05/07 04:10:10;;;;;;;;;;;;;;;9.76;85.34;99254.95;135523;1279;22638;-68
2023/05/07 04:13:13;;;;;;;;;;;;;;;9.77;85.58;99261.70;135385;1279;24339;-69
2023/05/07 04:16:17;;;;;;;;;;;;;;;9.79;85.70;99262.83;135564;1279;22505;-65
2023/05/07 04:19:19;;;;;;;;;;;;;;;9.80;85.37;99261.92;135491;1279;22524;-68
2023/05/07 04:22:23;;;;;;;;;;;;;;;9.73;85.67;99264.89;135471;1280;22516;-68
2023/05/07 04:25:26;;;;;;;;;;;;;;;9.75;85.52;99270.17;135439;1279;22521;-70
2023/05/07 04:28:37;;;;;;;;;;;;;;;9.76;84.59;99275.21;135550;1279;22518;-67
2023/05/07 04:31:40;;;;;;;;;;;;;;;9.76;84.88;99278.52;135557;1279;22511;-69
2023/05/07 04:34:44;;;;;;;;;;;;;;;9.78;84.87;99277.86;135521;1279;22523;-71
2023/05/07 04:37:47;;;;;;;;;;;;;;;9.81;84.42;99279.30;135448;1279;22526;-66
2023/05/07 04:40:50;;;;;;;;;;;;;;;9.81;84.52;99279.12;135518;1279;22526;-69
2023/05/07 04:43:54;;;;;;;;;;;;;;;9.92;84.06;99285.05;135505;1279;22504;-65
2023/05/07 04:46:57;;;;;;;;;;;;;;;9.97;83.41;99290.52;135553;1279;22525;-69
2023/05/07 04:50:00;;;;;;;;;;;;;;;9.95;83.65;99293.61;135397;1279;22611;-67
2023/05/07 04:53:04;;;;;;;;;;;;;;;9.93;83.12;99297.94;135569;1279;22504;-71
2023/05/07 04:56:07;;;;;;;;;;;;;;;9.95;83.27;99304.61;135525;1279;22527;-67
2023/05/07 04:59:10;;;;;;;;;;;;;;;10.01;83.43;99310.95;135506;1279;22501;-65
2023/05/07 05:02:14;;;;;;;;;;;;;;;10.01;82.87;99305.56;135501;1279;22542;-64
2023/05/07 05:05:17;;;;;;;;;;;;;;;9.99;83.06;99315.44;135423;1279;22500;-67
2023/05/07 05:08:21;;;;;;;;;;;;;;;9.97;83.10;99314.65;135534;1279;22530;-67
2023/05/07 05:11:25;;;;;;;;;;;;;;;9.98;83.47;99320.21;135543;1279;25288;-70
2023/05/07 05:14:28;;;;;;;;;;;;;;;10.04;83.51;99320.06;135502;1279;22518;-67
2023/05/07 05:17:32;;;;;;;;;;;;;;;10.07;82.42;99321.86;135507;1279;22544;-68
2023/05/07 05:20:36;;;;;;;;;;;;;;;9.99;82.58;99330.27;135468;1279;22523;-71
2023/05/07 05:23:40;;;;;;;;;;;;;;;9.99;82.52;99341.67;135446;1279;22504;-67
2023/05/07 05:26:43;;;;;;;;;;;;;;;9.98;82.53;99341.70;135485;1279;22507;-69
2023/05/07 05:29:46;;;;;;;;;;;;;;;10.04;82.11;99338.41;135496;1280;22512;-68
2023/05/07 05:32:50;;;;;;;;;;;;;;;10.09;81.20;99348.13;135421;1280;22497;-66
2023/05/07 05:35:54;;;;;;;;;;;;;;;10.12;81.74;99351.30;135353;1281;22521;-64
2023/05/07 05:38:57;;;;;;;;;;;;;;;10.21;81.16;99350.68;135212;1281;25320;-67
2023/05/07 05:42:01;;;;;;;;;;;;;;;10.31;80.43;99356.44;135419;1281;22524;-69
2023/05/07 05:45:04;;;;;;;;;;;;;;;10.30;80.81;99358.77;135409;1281;22511;-67
2023/05/07 05:48:09;;;;;;;;;;;;;;;10.34;80.03;99361.23;135398;1281;22504;-67
2023/05/07 05:51:12;;;;;;;;;;;;;;;10.34;80.23;99368.40;135399;1281;22520;-70
2023/05/07 05:54:16;;;;;;;;;;;;;;;10.23;79.78;99367.37;135407;1281;22511;-64
2023/05/07 05:57:19;;;;;;;;;;;;;;;10.21;80.49;99369.02;135362;1281;22595;-64
2023/05/07 06:00:23;;;;;;;;;;;;;;;10.16;80.09;99368.60;135340;1281;22535;-67
2023/05/07 06:03:26;;;;;;;;;;;;;;;10.20;80.53;99375.70;135366;1281;22496;-70
2023/05/07 06:06:33;;;;;;;;;;;;;;;10.24;79.66;99377.11;135402;1281;22516;-70
2023/05/07 06:09:36;;;;;;;;;;;;;;;10.28;80.06;99374.61;135393;1281;22514;-70
2023/05/07 06:12:40;;;;;;;;;;;;;;;10.32;80.04;99386.80;135282;1281;22720;-65
2023/05/07 06:15:43;;;;;;;;;;;;;;;10.31;80.13;99389.64;135417;1281;22575;-72
2023/05/07 06:18:47;;;;;;;;;;;;;;;10.25;80.02;99392.56;135351;1281;22498;-66
2023/05/07 06:21:50;;;;;;;;;;;;;;;10.24;81.06;99393.00;135344;1281;22530;-66
2023/05/07 06:24:54;;;;;;;;;;;;;;;10.23;79.96;99397.58;135363;1281;22547;-69
2023/05/07 06:27:57;;;;;;;;;;;;;;;10.22;80.58;99394.64;135242;1281;22522;-65
2023/05/07 06:31:00;;;;;;;;;;;;;;;10.36;79.84;99402.02;135325;1281;22520;-66
2023/05/07 06:34:04;;;;;;;;;;;;;;;10.39;79.59;99408.19;135410;1281;22518;-69
2023/05/07 06:37:08;;;;;;;;;;;;;;;10.35;78.85;99413.60;135330;1281;22547;-65
2023/05/07 06:40:11;;;;;;;;;;;;;;;10.36;78.78;99412.67;135321;1281;22500;-65
2023/05/07 06:43:18;;;;;;;;;;;;;;;10.32;78.59;99413.75;135388;1281;22517;-64
2023/05/07 06:46:21;;;;;;;;;;;;;;;10.24;78.95;99415.02;135420;1281;22504;-65
2023/05/07 06:49:24;;;;;;;;;;;;;;;10.30;79.09;99426.59;135386;1281;22560;-67
2023/05/07 06:52:28;;;;;;;;;;;;;;;10.40;78.95;99427.02;135373;1281;22521;-66
2023/05/07 06:55:31;;;;;;;;;;;;;;;10.48;77.71;99429.71;135271;1281;22505;-65
2023/05/07 06:58:35;;;;;;;;;;;;;;;10.53;78.12;99426.86;135363;1281;22551;-65
2023/05/07 07:01:38;;;;;;;;;;;;;;;10.59;78.33;99424.98;135332;1281;23023;-67
2023/05/07 07:04:42;;;;;;;;;;;;;;;10.59;78.48;99430.95;135332;1281;22523;-69
2023/05/07 07:07:52;;;;;;;;;;;;;;;10.48;77.51;99429.95;135417;1281;22579;-67
2023/05/07 07:10:55;;;;;;;;;;;;;;;10.44;78.20;99430.80;135363;1281;22503;-67
2023/05/07 07:13:59;;;;;;;;;;;;;;;10.51;77.96;99431.33;135382;1281;22500;-67
2023/05/07 07:17:04;;;;;;;;;;;;;;;10.51;77.72;99441.82;135388;1281;22504;-67
2023/05/07 07:20:08;;;;;;;;;;;;;;;10.51;77.63;99444.45;135421;1281;22511;-68
2023/05/07 07:23:11;;;;;;;;;;;;;;;10.49;77.43;99448.56;135339;1281;22571;-66
2023/05/07 07:26:15;;;;;;;;;;;;;;;10.44;76.96;99449.69;135374;1281;22548;-69
2023/05/07 07:29:18;;;;;;;;;;;;;;;10.36;78.40;99447.46;135390;1281;22969;-65
2023/05/07 07:32:22;;;;;;;;;;;;;;;10.48;78.35;99455.78;135420;1280;25386;-67
2023/05/07 07:35:25;;;;;;;;;;;;;;;10.57;77.39;99454.12;135557;1280;22547;-67
2023/05/07 07:38:30;;;;;;;;;;;;;;;10.62;76.31;99455.63;135526;1280;22530;-66
2023/05/07 07:41:34;;;;;;;;;;;;;;;10.72;75.76;99454.59;135551;1280;25201;-67
2023/05/07 07:44:39;;;;;;;;;;;;;;;10.83;74.95;99453.86;135336;1280;22562;-70
2023/05/07 07:47:43;;;;;;;;;;;;;;;10.90;75.22;99461.52;135523;1280;22501;-69
2023/05/07 07:50:46;;;;;;;;;;;;;;;10.91;74.77;99474.39;135555;1280;22490;-70
2023/05/07 07:53:49;;;;;;;;;;;;;;;11.01;74.84;99487.20;135489;1280;22498;-68
2023/05/07 07:56:53;;;;;;;;;;;;;;;11.19;73.63;99483.98;135553;1280;25462;-68
2023/05/07 07:59:57;;;;;;;;;;;;;;;11.18;73.00;99481.40;135565;1280;22509;-70
2023/05/07 08:03:02;;;;;;;;;;;;;;;11.15;72.14;99481.41;135558;1280;24286;-69
2023/05/07 08:06:06;;;;;;;;;;;;;;;11.05;73.83;99477.17;135556;1280;22496;-70
2023/05/07 08:09:09;;;;;;;;;;;;;;;11.13;73.35;99480.98;135562;1280;22523;-67
2023/05/07 08:12:13;;;;;;;;;;;;;;;11.10;73.19;99482.89;135574;1280;22541;-69
2023/05/07 08:15:16;;;;;;;;;;;;;;;11.18;73.65;99484.06;135486;1280;22507;-71
2023/05/07 08:18:19;;;;;;;;;;;;;;;11.33;73.22;99483.80;135539;1280;22573;-65
2023/05/07 08:21:23;;;;;;;;;;;;;;;11.37;71.66;99491.95;135507;1280;25501;-68
2023/05/07 08:24:27;;;;;;;;;;;;;;;11.34;72.90;99494.77;135608;1280;22544;-67
2023/05/07 08:27:30;;;;;;;;;;;;;;;11.29;72.40;99498.66;135562;1280;25057;-67
2023/05/07 08:30:33;;;;;;;;;;;;;;;11.11;72.40;99508.75;135530;1280;22540;-68
2023/05/07 08:33:38;;;;;;;;;;;;;;;10.88;73.67;99513.09;135577;1280;22513;-70
2023/05/07 08:36:41;;;;;;;;;;;;;;;10.72;74.28;99507.60;135556;1280;22497;-67
2023/05/07 08:39:45;;;;;;;;;;;;;;;10.82;74.51;99511.29;135578;1280;23871;-69
2023/05/07 08:42:48;;;;;;;;;;;;;;;10.78;73.53;99512.20;135557;1280;22538;-71
2023/05/07 08:45:52;;;;;;;;;;;;;;;10.83;73.25;99519.09;135562;1279;22507;-68
2023/05/07 08:48:55;;;;;;;;;;;;;;;11.01;71.79;99523.41;135528;1279;25339;-66
2023/05/07 08:51:59;;;;;;;;;;;;;;;11.07;71.16;99521.53;135595;1279;22528;-71
2023/05/07 08:55:02;;;;;;;;;;;;;;;11.23;71.53;99525.09;135592;1279;22641;-69
2023/05/07 08:58:06;;;;;;;;;;;;;;;11.31;70.97;99529.02;135557;1279;22539;-70
2023/05/07 09:01:10;;;;;;;;;;;;;;;11.35;71.38;99528.82;135489;1279;24238;-68
2023/05/07 09:04:13;;;;;;;;;;;;;;;11.38;70.16;99534.30;135592;1279;22497;-68
2023/05/07 09:07:17;;;;;;;;;;;;;;;11.43;70.93;99539.95;135536;1279;22499;-67
2023/05/07 09:10:20;;;;;;;;;;;;;;;11.57;71.64;99546.39;135613;1279;22573;-67
2023/05/07 09:13:23;;;;;;;;;;;;;;;11.82;71.30;99557.50;135569;1279;22508;-68
2023/05/07 09:16:27;;;;;;;;;;;;;;;11.84;68.56;99562.50;135525;1279;22516;-69
2023/05/07 09:19:30;;;;;;;;;;;;;;;11.84;68.69;99566.02;135567;1279;22527;-67
2023/05/07 09:22:34;;;;;;;;;;;;;;;11.79;67.91;99570.64;135556;1279;24248;-67
2023/05/07 09:25:37;;;;;;;;;;;;;;;11.78;68.67;99571.42;135559;1279;22510;-69
2023/05/07 09:28:41;;;;;;;;;;;;;;;11.79;68.36;99573.65;135602;1279;22497;-69
2023/05/07 09:31:45;;;;;;;;;;;;;;;11.74;68.25;99573.36;135562;1279;23777;-68
2023/05/07 09:34:49;;;;;;;;;;;;;;;11.62;68.95;99576.79;135591;1279;25467;-73
2023/05/07 09:37:53;;;;;;;;;;;;;;;11.73;68.78;99577.11;135606;1279;23796;-70
2023/05/07 09:40:56;;;;;;;;;;;;;;;11.80;66.84;99581.45;135550;1279;22511;-69
2023/05/07 09:44:00;;;;;;;;;;;;;;;11.97;67.24;99580.73;135599;1279;22519;-69
2023/05/07 09:47:02;;;;;;;;;;;;;;;11.96;67.09;99577.29;135457;1279;22515;-69
2023/05/07 09:50:05;;;;;;;;;;;;;;;11.93;67.25;99579.38;135598;1279;22500;-69
2023/05/07 09:53:08;;;;;;;;;;;;;;;12.02;68.00;99581.52;135584;1280;22504;-72
2023/05/07 09:56:11;;;;;;;;;;;;;;;12.12;66.78;99587.49;135600;1262;22508;-68
2023/05/07 09:59:14;;;;;;;;;;;;;;;12.07;66.13;99586.88;135578;1262;22622;-69
2023/05/07 10:02:17;;;;;;;;;;;;;;;12.27;65.78;99585.91;135557;1279;24597;-67
2023/05/07 10:05:20;;;;;;;;;;;;;;;12.18;66.54;99590.29;135601;1280;24241;-68
2023/05/07 10:08:24;;;;;;;;;;;;;;;12.26;66.18;99589.15;135599;1272;22523;-70
2023/05/07 10:11:27;;;;;;;;;;;;;;;12.11;66.36;99584.89;135585;1280;22500;-71
2023/05/07 10:14:30;;;;;;;;;;;;;;;12.20;66.58;99593.14;135572;1280;22500;-71
2023/05/07 10:17:33;;;;;;;;;;;;;;;11.97;67.05;99596.00;135591;1279;22508;-66
2023/05/07 10:20:36;;;;;;;;;;;;;;;11.88;67.65;99598.05;135599;1280;22508;-69
2023/05/07 10:23:39;;;;;;;;;;;;;;;11.97;68.04;99596.88;135473;1280;25393;-69
2023/05/07 10:26:42;;;;;;;;;;;;;;;12.21;66.44;99587.15;135583;1280;25373;-68
2023/05/07 10:29:45;;;;;;;;;;;;;;;12.12;66.15;99594.30;135495;1280;24395;-69
2023/05/07 10:32:48;;;;;;;;;;;;;;;12.01;66.94;99597.19;135515;1280;22510;-71
2023/05/07 10:35:51;;;;;;;;;;;;;;;12.02;66.79;99598.52;135383;1281;22509;-70
2023/05/07 10:38:54;;;;;;;;;;;;;;;12.12;65.98;99603.25;135320;1263;22512;-69
2023/05/07 10:41:57;;;;;;;;;;;;;;;12.19;66.77;99605.34;135337;1261;22528;-67
2023/05/07 10:45:00;;;;;;;;;;;;;;;12.39;66.56;99600.70;135364;1281;25591;-70
2023/05/07 10:48:03;;;;;;;;;;;;;;;12.88;66.25;99597.90;135256;1281;22543;-67
2023/05/07 10:51:06;;;;;;;;;;;;;;;13.16;64.02;99604.00;135374;1281;22501;-69
2023/05/07 10:54:09;;;;;;;;;;;;;;;12.93;63.15;99608.68;135372;1281;22510;-70
2023/05/07 10:57:11;;;;;;;;;;;;;;;12.59;64.33;99619.02;135346;1280;22507;-71
2023/05/07 11:00:15;;;;;;;;;;;;;;;12.36;65.36;99625.23;135255;1281;22497;-70
2023/05/07 11:03:18;;;;;;;;;;;;;;;12.31;66.28;99628.34;135336;1262;22665;-66
2023/05/07 11:06:21;;;;;;;;;;;;;;;12.21;66.95;99634.15;135329;1264;22509;-66
2023/05/07 11:09:25;;;;;;;;;;;;;;;12.29;65.66;99635.09;135364;1281;22505;-67
2023/05/07 11:12:30;;;;;;;;;;;;;;;12.40;65.51;99639.95;135393;1281;22502;-69
2023/05/07 11:15:33;;;;;;;;;;;;;;;12.45;65.41;99638.41;135349;1281;22587;-68
2023/05/07 11:18:37;;;;;;;;;;;;;;;12.34;64.74;99645.52;135316;1281;23791;-67
2023/05/07 11:21:40;;;;;;;;;;;;;;;12.40;65.81;99650.95;135273;1281;22510;-68
2023/05/07 11:24:42;;;;;;;;;;;;;;;12.46;65.92;99650.63;135342;1263;22508;-67
2023/05/07 11:27:46;;;;;;;;;;;;;;;12.40;65.84;99647.63;135331;1281;22514;-68
2023/05/07 11:30:48;;;;;;;;;;;;;;;12.42;65.38;99653.30;135315;1281;22519;-68
2023/05/07 11:33:51;;;;;;;;;;;;;;;12.73;64.85;99650.19;135338;1264;22510;-71
2023/05/07 11:36:55;;;;;;;;;;;;;;;12.87;65.36;99657.10;135356;1281;22505;-68
2023/05/07 11:39:58;;;;;;;;;;;;;;;12.89;64.46;99665.27;135389;1281;25282;-67
2023/05/07 11:43:01;;;;;;;;;;;;;;;13.01;63.69;99665.63;135373;1281;22503;-69
2023/05/07 11:46:06;;;;;;;;;;;;;;;13.12;63.37;99670.11;135308;1270;22514;-69
2023/05/07 11:49:10;;;;;;;;;;;;;;;13.04;62.81;99666.48;135355;1281;22525;-69
2023/05/07 11:52:13;;;;;;;;;;;;;;;12.88;63.53;99672.52;135347;1281;22607;-69
2023/05/07 11:55:15;;;;;;;;;;;;;;;12.73;63.43;99675.64;135296;1281;24291;-69
2023/05/07 11:58:21;;;;;;;;;;;;;;;12.52;63.23;99676.80;135315;1281;25469;-67
2023/05/07 12:01:24;;;;;;;;;;;;;;;12.15;64.47;99682.64;135331;1281;22507;-66
2023/05/07 12:04:27;;;;;;;;;;;;;;;11.97;65.88;99685.75;131271;1265;5387618;-66
2023/05/07 12:07:31;;;;;;;;;;;;;;;11.72;66.88;99682.96;135146;1281;22541;-68
2023/05/07 12:10:34;;;;;;;;;;;;;;;11.54;66.97;99686.50;135343;1281;22537;-69
2023/05/07 12:13:37;;;;;;;;;;;;;;;11.24;68.43;99686.10;135400;1281;22511;-68
2023/05/07 12:16:40;;;;;;;;;;;;;;;11.20;69.16;99691.03;135290;1281;22511;-70
2023/05/07 12:19:45;;;;;;;;;;;;;;;11.16;69.09;99699.11;135349;1281;22555;-65
2023/05/07 12:22:48;;;;;;;;;;;;;;;11.20;69.44;99706.25;135341;1281;22507;-67
2023/05/07 12:25:52;;;;;;;;;;;;;;;11.36;69.46;99708.11;135265;1281;25309;-68
2023/05/07 12:28:55;;;;;;;;;;;;;;;11.56;69.40;99701.83;135335;1281;22650;-67
2023/05/07 12:31:59;;;;;;;;;;;;;;;12.03;69.04;99705.05;135377;1280;22659;-68
2023/05/07 12:35:03;;;;;;;;;;;;;;;12.54;67.48;99704.42;135629;1280;22512;-70
2023/05/07 12:38:06;;;;;;;;;;;;;;;12.68;65.40;99706.96;135619;1280;22517;-68
2023/05/07 12:41:09;;;;;;;;;;;;;;;12.70;64.99;99711.61;135595;1280;22498;-70
2023/05/07 12:44:13;;;;;;;;;;;;;;;12.67;65.30;99714.41;135583;1280;22524;-65
2023/05/07 12:47:16;;;;;;;;;;;;;;;12.55;64.08;99719.25;135623;1280;24343;-69
2023/05/07 12:50:20;;;;;;;;;;;;;;;12.20;64.34;99727.45;135463;1280;22534;-68
2023/05/07 12:53:24;;;;;;;;;;;;;;;11.90;65.67;99725.88;135653;1280;22500;-67
2023/05/07 12:56:27;;;;;;;;;;;;;;;11.77;66.60;99727.55;135545;1280;22518;-67
2023/05/07 12:59:31;;;;;;;;;;;;;;;11.70;66.66;99734.06;135515;1280;25421;-67
2023/05/07 13:02:34;;;;;;;;;;;;;;;11.74;67.39;99736.85;135639;1279;22511;-66
2023/05/07 13:05:38;;;;;;;;;;;;;;;11.74;66.97;99736.45;135630;1279;22505;-66
2023/05/07 13:08:42;;;;;;;;;;;;;;;11.82;66.70;99736.28;135542;1279;22518;-69
2023/05/07 13:11:46;;;;;;;;;;;;;;;11.81;67.36;99738.91;135590;1279;22487;-67
2023/05/07 13:14:50;;;;;;;;;;;;;;;11.80;67.23;99738.44;135646;1279;22504;-67
2023/05/07 13:17:53;;;;;;;;;;;;;;;11.83;66.53;99741.30;135623;1279;22511;-66
2023/05/07 13:20:57;;;;;;;;;;;;;;;11.86;67.48;99740.79;135543;1279;22510;-69
2023/05/07 13:24:01;;;;;;;;;;;;;;;12.05;67.25;99739.13;135520;1280;22505;-71
2023/05/07 13:27:05;;;;;;;;;;;;;;;12.23;66.03;99745.38;135635;1279;22520;-68
2023/05/07 13:30:09;;;;;;;;;;;;;;;12.33;65.28;99742.55;135629;1280;22675;-69
2023/05/07 13:33:12;;;;;;;;;;;;;;;12.34;65.22;99743.18;135579;1280;22526;-68
2023/05/07 13:36:16;;;;;;;;;;;;;;;12.32;65.06;99740.48;135595;1279;22511;-67
2023/05/07 13:39:19;;;;;;;;;;;;;;;12.21;65.07;99741.42;135591;1280;22512;-67
2023/05/07 13:42:23;;;;;;;;;;;;;;;12.19;64.66;99738.58;135602;1280;22500;-66
2023/05/07 13:45:29;;;;;;;;;;;;;;;12.28;64.89;99739.80;135631;1280;22561;-68
2023/05/07 13:48:33;;;;;;;;;;;;;;;12.26;65.05;99738.73;135604;1280;22506;-68
2023/05/07 13:51:36;;;;;;;;;;;;;;;12.21;65.03;99744.76;135605;1279;22542;-67
2023/05/07 13:54:40;;;;;;;;;;;;;;;12.08;64.37;99740.17;135571;1279;22523;-67
2023/05/07 13:57:44;;;;;;;;;;;;;;;12.03;65.42;99743.97;135629;1279;25392;-67
2023/05/07 14:00:46;;;;;;;;;;;;;;;12.01;65.21;99741.23;135622;1279;22515;-66
2023/05/07 14:03:49;;;;;;;;;;;;;;;12.27;65.92;99740.94;135312;1279;22539;-65
2023/05/07 14:06:52;;;;;;;;;;;;;;;12.63;65.14;99738.65;135552;1279;22500;-66
2023/05/07 14:09:55;;;;;;;;;;;;;;;12.79;64.29;99738.48;135598;1262;22515;-65
2023/05/07 14:12:58;;;;;;;;;;;;;;;12.85;63.42;99746.23;135596;1280;22533;-67
2023/05/07 14:16:01;;;;;;;;;;;;;;;12.95;63.31;99748.13;135583;1280;22581;-70
2023/05/07 14:19:04;;;;;;;;;;;;;;;12.77;63.29;99746.29;135589;1280;22504;-66
2023/05/07 14:22:07;;;;;;;;;;;;;;;12.77;63.02;99750.88;135567;1280;22510;-67
2023/05/07 14:25:10;;;;;;;;;;;;;;;12.73;63.30;99751.42;135592;1262;22777;-70
2023/05/07 14:28:13;;;;;;;;;;;;;;;12.89;63.36;99758.84;135614;1280;23848;-68
2023/05/07 14:31:16;;;;;;;;;;;;;;;12.88;62.39;99757.33;135575;1280;22500;-68
2023/05/07 14:34:27;;;;;;;;;;;;;;;12.94;62.40;99762.74;135556;1280;22490;-66
2023/05/07 14:37:30;;;;;;;;;;;;;;;13.03;62.04;99765.42;135572;1280;23270;-69
2023/05/07 14:40:33;;;;;;;;;;;;;;;12.98;60.87;99764.96;135524;1280;22600;-71
2023/05/07 14:43:36;;;;;;;;;;;;;;;12.88;62.13;99766.98;135581;1280;25269;-68
2023/05/07 14:46:39;;;;;;;;;;;;;;;12.77;62.26;99768.60;135584;1280;22510;-68
2023/05/07 14:49:42;;;;;;;;;;;;;;;12.64;63.04;99772.80;135631;1279;22512;-69
2023/05/07 14:52:48;;;;;;;;;;;;;;;12.60;63.00;99778.99;135617;1280;22518;-66
2023/05/07 14:55:52;;;;;;;;;;;;;;;12.51;62.75;99778.58;135609;1280;22505;-67
2023/05/07 14:58:56;;;;;;;;;;;;;;;12.49;63.41;99780.83;135595;1280;23169;-66
2023/05/07 15:01:59;;;;;;;;;;;;;;;12.43;63.49;99784.45;135592;1280;22511;-65
2023/05/07 15:05:03;;;;;;;;;;;;;;;12.34;63.51;99787.07;135610;1280;25450;-66
2023/05/07 15:08:08;;;;;;;;;;;;;;;12.39;63.60;99786.41;135581;1280;22527;-67
2023/05/07 15:11:11;;;;;;;;;;;;;;;12.47;63.69;99786.35;135601;1280;22527;-67
2023/05/07 15:14:14;;;;;;;;;;;;;;;12.48;63.29;99787.88;135449;1280;22616;-66
2023/05/07 15:17:21;;;;;;;;;;;;;;;12.35;63.71;99791.52;135614;1280;22530;-67
2023/05/07 15:20:24;;;;;;;;;;;;;;;12.21;64.14;99788.94;135596;1280;22616;-67
2023/05/07 15:23:27;;;;;;;;;;;;;;;12.05;64.22;99789.79;135610;1280;22559;-66
2023/05/07 15:26:30;;;;;;;;;;;;;;;12.02;64.32;99789.26;135577;1280;25338;-67
2023/05/07 15:29:33;;;;;;;;;;;;;;;12.06;64.78;99793.77;135521;1262;22615;-67
2023/05/07 15:32:38;;;;;;;;;;;;;;;12.20;64.52;99796.92;135479;1281;22501;-65
2023/05/07 15:35:40;;;;;;;;;;;;;;;12.22;64.06;99799.23;135321;1281;22519;-68
2023/05/07 15:38:51;;;;;;;;;;;;;;;12.33;63.24;99797.63;135305;1281;22555;-66
2023/05/07 15:41:54;;;;;;;;;;;;;;;12.21;62.14;99800.71;135305;1281;22542;-66
2023/05/07 15:44:58;;;;;;;;;;;;;;;12.02;62.84;99799.23;135332;1281;22511;-68